Time;durP1;ratioP1;P1;durP2;ratioP2;P2;SDS_P1;SDS_P2;PMS_P1;PMS_P2;Temp;Humidity;BMP_temperature;BMP_pressure;BME280_temperature;BME280_humidity;BME280_pressure;Samples;Min_cycle;Max_cycle;Signal;HPM_P1;HPM_P2
2022/06/11 00:01:39;;;;;;;19.42;4.00;;;20.40;38.00;;;;;;5051199;28;20418;-80
2022/06/11 00:04:08;;;;;;;9.52;3.78;;;20.40;38.20;;;;;;5048297;28;20791;-78
2022/06/11 00:06:36;;;;;;;11.35;3.88;;;20.40;38.10;;;;;;5053717;28;20441;-82
2022/06/11 00:09:04;;;;;;;9.45;3.58;;;20.50;37.90;;;;;;5047567;28;20405;-81
2022/06/11 00:11:30;;;;;;;10.63;3.58;;;20.50;38.10;;;;;;5050329;28;20415;-82
2022/06/11 00:13:56;;;;;;;8.32;3.50;;;20.60;37.40;;;;;;5052187;28;20386;-83
2022/06/11 00:16:24;;;;;;;11.18;3.40;;;20.50;37.70;;;;;;5050935;28;20482;-80
2022/06/11 00:18:54;;;;;;;12.05;3.78;;;20.50;37.50;;;;;;5036817;28;20383;-80
2022/06/11 00:21:21;;;;;;;9.40;3.22;;;20.60;37.90;;;;;;5035521;28;20407;-82
2022/06/11 00:23:47;;;;;;;5.38;2.80;;;20.50;37.40;;;;;;5056992;28;20371;-80
2022/06/11 00:26:12;;;;;;;10.57;3.05;;;20.50;37.10;;;;;;5056476;28;20390;-79
2022/06/11 00:28:38;;;;;;;7.97;3.50;;;20.40;37.70;;;;;;5049821;28;20413;-80
2022/06/11 00:31:05;;;;;;;8.13;3.45;;;20.40;38.00;;;;;;5055900;28;20415;-80
2022/06/11 00:33:31;;;;;;;9.18;3.40;;;20.40;37.90;;;;;;5057301;28;20386;-82
2022/06/11 00:35:57;;;;;;;6.00;2.97;;;20.40;37.90;;;;;;5058346;28;20441;-81
2022/06/11 00:38:23;;;;;;;9.98;3.60;;;20.30;38.30;;;;;;5055022;28;20407;-81
2022/06/11 00:40:51;;;;;;;8.93;3.20;;;20.40;37.80;;;;;;5054728;28;20399;-78
2022/06/11 00:43:21;;;;;;;8.25;3.00;;;20.40;38.10;;;;;;5053141;28;20387;-81
2022/06/11 00:45:56;;;;;;;5.93;3.10;;;20.30;38.40;;;;;;5053543;28;20386;-83
2022/06/11 00:48:34;;;;;;;9.68;3.50;;;20.20;38.60;;;;;;5051203;28;20381;-80
2022/06/11 00:51:00;;;;;;;8.02;2.83;;;20.20;38.50;;;;;;5058430;28;20435;-81
2022/06/11 00:53:40;;;;;;;6.28;3.30;;;20.30;38.30;;;;;;5053028;28;20426;-81
2022/06/11 00:56:13;;;;;;;6.10;3.00;;;20.30;38.60;;;;;;5055666;28;20585;-79
2022/06/11 00:58:45;;;;;;;7.72;3.47;;;20.40;38.00;;;;;;5052341;28;20390;-84
2022/06/11 01:01:13;;;;;;;7.72;3.20;;;20.30;38.40;;;;;;5050915;28;20498;-80
2022/06/11 01:03:43;;;;;;;6.07;2.92;;;20.40;37.70;;;;;;5052785;28;20387;-80
2022/06/11 01:06:17;;;;;;;9.52;3.40;;;20.40;37.70;;;;;;5051988;28;20418;-79
2022/06/11 01:08:55;;;;;;;10.65;3.28;;;20.30;38.10;;;;;;5049774;28;20391;-80
2022/06/11 01:11:37;;;;;;;9.05;3.10;;;20.30;38.40;;;;;;5049875;28;20433;-80
2022/06/11 01:14:08;;;;;;;8.43;2.93;;;20.30;38.40;;;;;;5045684;28;20386;-80
2022/06/11 01:16:52;;;;;;;10.70;3.20;;;20.30;38.20;;;;;;5050344;28;20375;-82
2022/06/11 01:19:53;;;;;;;8.50;3.30;;;20.20;38.20;;;;;;5046337;28;20427;-81
2022/06/11 01:22:57;;;;;;;8.87;3.33;;;20.10;38.50;;;;;;5030391;28;20418;-81
2022/06/11 01:25:48;;;;;;;9.23;3.10;;;20.10;39.20;;;;;;5052057;28;20407;-79
2022/06/11 01:28:28;;;;;;;7.25;3.10;;;19.90;39.80;;;;;;5041434;28;20387;-78
2022/06/11 01:31:30;;;;;;;4.40;2.60;;;19.90;40.10;;;;;;5050670;28;20403;-80
2022/06/11 01:34:08;;;;;;;8.88;3.30;;;19.70;41.20;;;;;;5032249;28;20399;-80
2022/06/11 01:36:40;;;;;;;9.23;3.30;;;19.60;42.40;;;;;;5057559;28;20468;-79
2022/06/11 01:39:17;;;;;;;10.98;3.58;;;19.40;43.40;;;;;;5069187;28;20408;-81
2022/06/11 01:42:00;;;;;;;8.13;3.23;;;19.30;44.40;;;;;;5041740;28;20499;-80
2022/06/11 01:44:32;;;;;;;11.60;3.58;;;19.30;45.20;;;;;;5040282;28;20388;-80
2022/06/11 01:46:59;;;;;;;9.17;3.20;;;19.20;45.60;;;;;;5048195;28;20443;-81
2022/06/11 01:49:25;;;;;;;7.97;3.40;;;19.20;45.90;;;;;;5051411;28;20411;-81
2022/06/11 01:52:05;;;;;;;6.90;3.50;;;19.20;45.90;;;;;;5052741;28;20409;-79
2022/06/11 01:54:40;;;;;;;10.20;3.63;;;19.20;46.40;;;;;;5007971;28;20408;-82
2022/06/11 01:57:34;;;;;;;10.95;3.70;;;19.00;47.60;;;;;;5029013;28;20783;-80
2022/06/11 02:00:14;;;;;;;8.15;3.83;;;19.00;48.40;;;;;;5024097;28;20402;-80
2022/06/11 02:02:59;;;;;;;11.05;4.05;;;18.90;48.70;;;;;;5047251;28;20406;-77
2022/06/11 02:05:28;;;;;;;11.25;3.90;;;19.00;48.10;;;;;;5046002;28;20419;-80
2022/06/11 02:08:17;;;;;;;13.52;4.53;;;18.90;49.20;;;;;;5038835;28;20388;-83
2022/06/11 02:11:00;;;;;;;9.48;4.40;;;18.90;49.60;;;;;;5026133;28;20403;-78
2022/06/11 02:13:39;;;;;;;9.70;4.10;;;18.80;50.50;;;;;;5025747;28;20428;-78
2022/06/11 02:16:52;;;;;;;8.90;4.20;;;18.80;50.40;;;;;;5033600;28;20399;-79
2022/06/11 02:19:23;;;;;;;10.90;4.15;;;18.80;51.70;;;;;;5042257;28;20404;-85
2022/06/11 02:25:45;;;;;;;10.90;4.20;;;18.70;51.80;;;;;;5048272;28;20422;-83
2022/06/11 02:28:26;;;;;;;8.32;4.60;;;18.70;52.10;;;;;;5023231;28;20391;-83
2022/06/11 02:30:59;;;;;;;7.00;4.15;;;18.50;53.90;;;;;;5011698;28;20405;-84
2022/06/11 02:33:34;;;;;;;9.70;4.40;;;18.40;55.10;;;;;;5020826;28;20399;-82
2022/06/11 02:36:17;;;;;;;6.95;4.20;;;18.30;56.90;;;;;;5031176;28;20391;-80
2022/06/11 02:38:56;;;;;;;7.20;4.85;;;18.20;57.70;;;;;;5021089;28;20446;-85
2022/06/11 02:48:28;;;;;;;8.27;4.40;;;18.30;57.80;;;;;;5049879;28;20454;-86
2022/06/11 02:51:43;;;;;;;;;;;;;;;;;;;;;
2022/06/11 02:55:09;;;;;;;6.90;4.47;;;18.10;58.90;;;;;;5049748;28;20434;-85
2022/06/11 02:57:35;;;;;;;8.30;4.50;;;18.10;59.80;;;;;;5046855;28;20415;-87
2022/06/11 03:00:01;;;;;;;7.70;4.20;;;18.00;60.10;;;;;;5046124;28;20414;-84
2022/06/11 03:02:27;;;;;;;11.50;5.00;;;17.90;61.50;;;;;;5045262;28;20387;-84
2022/06/11 03:04:56;;;;;;;13.38;4.70;;;17.80;62.90;;;;;;5040992;28;20391;-85
2022/06/11 03:07:22;;;;;;;11.15;5.00;;;17.70;65.90;;;;;;5050242;28;20417;-81
2022/06/11 03:09:57;;;;;;;7.55;4.53;;;17.70;66.00;;;;;;5043549;28;20408;-83
2022/06/11 03:12:39;;;;;;;11.15;4.80;;;17.60;66.90;;;;;;5035322;28;20423;-81
2022/06/11 03:18:49;;;;;;;13.07;4.80;;;17.30;71.20;;;;;;5004688;28;20386;-81
2022/06/11 03:28:31;;;;;;;6.43;4.95;;;17.40;73.40;;;;;;4958670;28;20373;-83
2022/06/11 03:31:06;;;;;;;11.03;4.60;;;17.40;73.20;;;;;;4962573;28;20438;-86
2022/06/11 03:36:53;;;;;;;12.20;5.10;;;17.30;73.60;;;;;;4936801;28;20699;-84
2022/06/11 03:40:03;;;;;;;9.15;5.10;;;17.40;72.80;;;;;;4980359;28;20383;-85
2022/06/11 03:57:28;;;;;;;;;;;;;;;;;;;;;
2022/06/11 04:07:47;;;;;;;9.45;4.38;;;17.30;75.20;;;;;;4847917;29;20467;-86
2022/06/11 04:19:24;;;;;;;10.85;5.00;;;17.50;73.20;;;;;;998984;26;21581;-86
2022/06/11 04:25:48;;;;;;;7.75;4.90;;;17.40;76.70;;;;;;5077429;28;20383;-85
2022/06/11 04:28:22;;;;;;;10.32;5.20;;;17.30;77.00;;;;;;5059277;28;20408;-84
2022/06/11 04:30:47;;;;;;;11.15;5.03;;;17.50;76.50;;;;;;5091333;22;20463;-75
2022/06/11 04:33:13;;;;;;;9.60;4.70;;;17.40;77.30;;;;;;5072455;28;20534;-75
2022/06/11 04:35:38;;;;;;;9.80;4.73;;;17.30;79.00;;;;;;5074101;28;20392;-75
2022/06/11 04:38:04;;;;;;;7.80;5.00;;;17.40;80.10;;;;;;5074522;28;20387;-76
2022/06/11 04:40:30;;;;;;;9.77;4.82;;;17.50;79.10;;;;;;5074794;28;20376;-75
2022/06/11 04:42:55;;;;;;;11.40;5.10;;;17.60;77.50;;;;;;5071915;28;20391;-75
2022/06/11 04:45:21;;;;;;;10.80;5.10;;;17.70;74.60;;;;;;5053106;28;20401;-76
2022/06/11 04:47:47;;;;;;;10.15;5.22;;;17.80;75.70;;;;;;5054478;28;20397;-75
2022/06/11 04:50:15;;;;;;;9.35;4.55;;;18.00;72.10;;;;;;5033504;28;20410;-75
2022/06/11 04:52:41;;;;;;;10.10;4.85;;;18.20;72.30;;;;;;5053805;28;20459;-74
2022/06/11 04:55:07;;;;;;;9.37;4.40;;;18.50;68.70;;;;;;5051878;28;20513;-74
2022/06/11 04:57:33;;;;;;;9.63;5.18;;;18.90;65.10;;;;;;5037657;28;20421;-74
2022/06/11 04:59:59;;;;;;;10.55;5.05;;;19.30;56.20;;;;;;5051764;28;20463;-74
2022/06/11 05:02:25;;;;;;;12.57;5.43;;;19.50;54.20;;;;;;5053107;28;20878;-73
2022/06/11 05:04:52;;;;;;;13.60;5.20;;;19.70;51.70;;;;;;5052798;28;20896;-73
2022/06/11 05:07:19;;;;;;;10.73;4.82;;;19.70;49.80;;;;;;5054093;28;20750;-73
2022/06/11 05:09:45;;;;;;;13.70;5.40;;;19.80;48.50;;;;;;5054057;28;20425;-73
2022/06/11 05:12:12;;;;;;;10.38;5.00;;;19.90;48.10;;;;;;5052368;28;20858;-72
2022/06/11 05:14:38;;;;;;;8.73;4.50;;;19.90;46.60;;;;;;5051514;28;20770;-74
2022/06/11 05:17:04;;;;;;;9.90;4.68;;;19.90;46.80;;;;;;5052946;28;20401;-74
2022/06/11 05:19:29;;;;;;;8.48;4.20;;;19.90;47.20;;;;;;5053213;28;20389;-74
2022/06/11 05:21:55;;;;;;;10.60;4.60;;;20.00;46.50;;;;;;5053045;28;20397;-74
2022/06/11 05:24:21;;;;;;;9.05;4.28;;;20.00;46.80;;;;;;5051088;28;20487;-74
2022/06/11 05:26:54;;;;;;;7.13;4.10;;;20.10;45.30;;;;;;5052856;28;20859;-74
2022/06/11 05:29:25;;;;;;;11.57;4.30;;;20.20;44.30;;;;;;5053082;28;20389;-74
2022/06/11 05:31:52;;;;;;;7.97;4.18;;;20.20;45.10;;;;;;5049714;28;20414;-74
2022/06/11 05:34:19;;;;;;;7.95;4.15;;;20.20;44.50;;;;;;5051059;28;20483;-74
2022/06/11 05:36:46;;;;;;;7.47;3.90;;;20.30;44.40;;;;;;5052925;28;20378;-74
2022/06/11 05:39:12;;;;;;;11.03;4.47;;;20.40;43.30;;;;;;5067119;28;20829;-73
2022/06/11 05:41:38;;;;;;;9.75;4.38;;;20.40;43.60;;;;;;5072695;28;20876;-74
2022/06/11 05:44:05;;;;;;;11.93;4.20;;;20.30;43.40;;;;;;5061447;28;20416;-74
2022/06/11 05:46:32;;;;;;;9.50;4.70;;;20.40;43.00;;;;;;5045649;28;20455;-74
2022/06/11 05:49:00;;;;;;;10.00;4.80;;;20.50;42.80;;;;;;5054803;28;20409;-74
2022/06/11 05:51:34;;;;;;;11.40;4.60;;;20.60;42.50;;;;;;5054044;28;20804;-74
2022/06/11 05:54:04;;;;;;;8.35;4.07;;;20.70;42.90;;;;;;5054916;28;20464;-74
2022/06/11 05:56:30;;;;;;;8.18;4.10;;;20.80;41.00;;;;;;5057438;28;20896;-74
2022/06/11 05:59:01;;;;;;;12.60;4.70;;;20.80;41.10;;;;;;5057689;28;20431;-74
2022/06/11 06:01:31;;;;;;;9.97;4.73;;;21.00;39.40;;;;;;5056816;28;20865;-75
2022/06/11 06:03:57;;;;;;;14.18;4.78;;;21.00;39.80;;;;;;5050683;28;20444;-74
2022/06/11 06:06:23;;;;;;;6.55;4.05;;;21.30;38.10;;;;;;5045593;28;20434;-74
2022/06/11 06:08:48;;;;;;;10.30;4.07;;;21.30;37.20;;;;;;5049380;28;20500;-74
2022/06/11 06:11:14;;;;;;;13.50;4.30;;;21.30;37.70;;;;;;5052719;28;20406;-74
2022/06/11 06:13:46;;;;;;;12.67;4.43;;;21.30;37.60;;;;;;5053515;28;20382;-74
2022/06/11 06:16:16;;;;;;;10.90;4.43;;;21.40;36.80;;;;;;5052001;28;20401;-75
2022/06/11 06:18:42;;;;;;;11.02;3.60;;;21.40;37.10;;;;;;5045844;28;20485;-74
2022/06/11 06:21:07;;;;;;;13.55;4.72;;;21.40;36.80;;;;;;5033609;28;20488;-74
2022/06/11 06:23:34;;;;;;;10.30;4.07;;;21.50;37.10;;;;;;5051139;28;20491;-74
2022/06/11 06:26:00;;;;;;;9.85;4.20;;;21.70;36.10;;;;;;5051941;28;20389;-75
2022/06/11 06:28:26;;;;;;;9.93;4.70;;;22.10;34.50;;;;;;5034160;28;20913;-75
2022/06/11 06:30:51;;;;;;;6.18;4.07;;;22.00;34.50;;;;;;5051802;28;20441;-74
2022/06/11 06:33:17;;;;;;;10.90;4.90;;;21.90;35.00;;;;;;5051488;28;21185;-73
2022/06/11 06:35:43;;;;;;;13.70;4.67;;;21.70;34.80;;;;;;5047796;28;20405;-75
2022/06/11 06:38:08;;;;;;;10.25;4.70;;;21.70;35.90;;;;;;5052037;28;20862;-73
2022/06/11 06:40:35;;;;;;;12.57;5.50;;;21.80;36.30;;;;;;5051746;28;20389;-74
2022/06/11 06:43:01;;;;;;;10.85;4.80;;;21.90;34.80;;;;;;5032710;28;20971;-73
2022/06/11 06:45:27;;;;;;;11.85;4.72;;;22.00;34.10;;;;;;5050146;28;20921;-73
2022/06/11 06:47:52;;;;;;;10.03;4.67;;;22.10;34.00;;;;;;5030009;28;20415;-73
2022/06/11 06:50:18;;;;;;;11.60;5.30;;;22.30;34.30;;;;;;5049090;28;20413;-73
2022/06/11 06:52:44;;;;;;;13.95;5.30;;;22.30;34.30;;;;;;5051666;28;21019;-73
2022/06/11 06:55:13;;;;;;;8.87;4.50;;;22.50;31.90;;;;;;5043859;28;20419;-74
2022/06/11 06:57:39;;;;;;;12.00;5.30;;;22.50;32.10;;;;;;5051474;28;20805;-75
2022/06/11 07:00:06;;;;;;;13.10;4.63;;;22.40;32.60;;;;;;5050425;28;20390;-74
2022/06/11 07:02:32;;;;;;;8.63;3.83;;;22.50;31.30;;;;;;5048610;28;20396;-74
2022/06/11 07:05:00;;;;;;;8.10;3.93;;;22.50;31.10;;;;;;5050688;28;20652;-77
2022/06/11 07:07:26;;;;;;;10.05;3.40;;;22.70;31.00;;;;;;5034562;28;20399;-73
2022/06/11 07:09:54;;;;;;;9.20;3.75;;;22.70;29.60;;;;;;5050232;28;20416;-75
2022/06/11 07:12:20;;;;;;;7.37;3.50;;;22.80;29.50;;;;;;5046676;28;20473;-73
2022/06/11 07:14:45;;;;;;;9.63;3.50;;;22.90;29.80;;;;;;5050496;28;20477;-75
2022/06/11 07:17:12;;;;;;;4.95;3.22;;;23.10;29.50;;;;;;5054997;28;20408;-74
2022/06/11 07:19:50;;;;;;;7.05;3.20;;;23.20;29.20;;;;;;5049555;28;20958;-75
2022/06/11 07:22:32;;;;;;;8.70;3.47;;;23.30;28.00;;;;;;5054041;28;20401;-74
2022/06/11 07:25:00;;;;;;;7.18;3.30;;;23.20;26.50;;;;;;5036219;28;20855;-74
2022/06/11 07:27:31;;;;;;;6.55;2.70;;;23.30;26.90;;;;;;5045784;28;20409;-74
2022/06/11 07:30:02;;;;;;;7.65;3.05;;;23.50;26.30;;;;;;5049366;28;20424;-74
2022/06/11 07:32:32;;;;;;;9.33;3.30;;;23.20;26.60;;;;;;5042620;28;20417;-73
2022/06/11 07:35:00;;;;;;;6.10;3.00;;;22.90;28.30;;;;;;5048731;28;20415;-74
2022/06/11 07:37:26;;;;;;;9.70;3.65;;;22.60;28.60;;;;;;5035959;28;20419;-74
2022/06/11 07:39:52;;;;;;;8.00;3.50;;;22.40;29.80;;;;;;5047105;28;20747;-75
2022/06/11 07:42:18;;;;;;;7.20;3.10;;;22.30;30.50;;;;;;5048415;28;20462;-75
2022/06/11 07:44:45;;;;;;;7.88;2.95;;;22.00;30.70;;;;;;5043597;28;20516;-75
2022/06/11 07:47:11;;;;;;;5.17;2.70;;;21.90;30.10;;;;;;5046967;28;20488;-74
2022/06/11 07:49:36;;;;;;;6.60;2.50;;;22.00;29.60;;;;;;5048550;28;20856;-75
2022/06/11 07:52:03;;;;;;;7.20;2.63;;;22.10;28.70;;;;;;5046263;28;20413;-73
2022/06/11 07:54:29;;;;;;;7.60;3.10;;;22.30;27.60;;;;;;5045644;28;20408;-76
2022/06/11 07:56:55;;;;;;;6.40;2.50;;;22.50;27.20;;;;;;5044225;28;20804;-74
2022/06/11 07:59:20;;;;;;;3.97;2.10;;;22.70;26.20;;;;;;5028726;28;20409;-74
2022/06/11 08:01:46;;;;;;;4.65;2.28;;;22.90;25.70;;;;;;5046742;28;20479;-75
2022/06/11 08:04:12;;;;;;;6.07;2.43;;;23.10;25.10;;;;;;5046764;28;20444;-74
2022/06/11 08:06:38;;;;;;;5.47;2.60;;;23.40;24.20;;;;;;5047861;28;20426;-73
2022/06/11 08:09:03;;;;;;;7.97;2.53;;;23.80;23.40;;;;;;5050293;28;20474;-74
2022/06/11 08:11:29;;;;;;;3.55;2.30;;;23.60;23.90;;;;;;5048919;28;20456;-73
2022/06/11 08:13:55;;;;;;;7.63;2.77;;;23.50;25.20;;;;;;5042366;28;20781;-74
2022/06/11 08:16:20;;;;;;;5.88;2.78;;;23.50;24.60;;;;;;5048032;28;20439;-76
2022/06/11 08:18:46;;;;;;;5.45;2.80;;;23.20;24.70;;;;;;5049969;28;20911;-74
2022/06/11 08:21:12;;;;;;;6.43;2.53;;;23.10;25.60;;;;;;5049846;28;20455;-74
2022/06/11 08:23:39;;;;;;;7.97;3.20;;;23.50;25.50;;;;;;5050590;28;20727;-74
2022/06/11 08:26:06;;;;;;;6.50;2.58;;;23.50;25.20;;;;;;5048479;28;20409;-75
2022/06/11 08:28:31;;;;;;;6.90;2.90;;;23.40;25.60;;;;;;5048188;28;20804;-74
2022/06/11 08:30:57;;;;;;;6.20;3.00;;;23.50;25.80;;;;;;5047380;28;20454;-74
2022/06/11 08:33:22;;;;;;;4.80;3.05;;;23.90;25.00;;;;;;5050935;28;20953;-74
2022/06/11 08:35:48;;;;;;;7.03;3.20;;;24.70;23.20;;;;;;5051580;28;20420;-73
2022/06/11 08:38:14;;;;;;;6.95;2.80;;;24.90;21.00;;;;;;5053640;28;20909;-73
2022/06/11 08:40:49;;;;;;;5.70;2.80;;;24.90;21.30;;;;;;5051197;28;20385;-74
2022/06/11 08:43:23;;;;;;;7.05;3.13;;;25.20;20.30;;;;;;5049597;28;20408;-73
2022/06/11 08:45:57;;;;;;;5.15;3.00;;;25.00;20.70;;;;;;5049720;28;20786;-74
2022/06/11 08:48:40;;;;;;;7.05;2.80;;;24.90;20.80;;;;;;5051534;28;20492;-75
2022/06/11 08:51:33;;;;;;;6.30;2.78;;;24.80;21.10;;;;;;5050413;28;20885;-75
2022/06/11 08:54:04;;;;;;;6.22;2.78;;;25.00;21.10;;;;;;5047073;28;20405;-76
2022/06/11 08:56:38;;;;;;;6.50;2.90;;;24.80;22.00;;;;;;5046859;28;20405;-75
2022/06/11 08:59:25;;;;;;;4.32;2.67;;;24.70;21.90;;;;;;5048893;28;20484;-75
2022/06/11 09:02:07;;;;;;;4.47;2.60;;;24.80;22.00;;;;;;5047211;28;20758;-75
2022/06/11 09:04:46;;;;;;;4.13;2.93;;;24.90;21.70;;;;;;5049298;28;20405;-75
2022/06/11 09:07:34;;;;;;;5.90;2.92;;;25.00;21.30;;;;;;5047387;28;20477;-75
2022/06/11 09:10:18;;;;;;;7.65;2.78;;;25.00;21.00;;;;;;5048559;28;20758;-76
2022/06/11 09:13:05;;;;;;;4.80;2.60;;;25.00;21.40;;;;;;5047526;28;20482;-75
2022/06/11 09:15:56;;;;;;;4.95;2.53;;;25.30;20.20;;;;;;5049142;28;20474;-76
2022/06/11 09:18:37;;;;;;;6.37;3.00;;;25.40;20.00;;;;;;5050219;28;20745;-75
2022/06/11 09:21:12;;;;;;;5.65;2.60;;;25.20;20.40;;;;;;5050102;28;20396;-74
2022/06/11 09:24:14;;;;;;;6.65;3.00;;;25.00;21.30;;;;;;5044224;28;20918;-76
2022/06/11 09:27:09;;;;;;;4.15;3.03;;;25.30;21.20;;;;;;5045785;28;20414;-73
2022/06/11 09:29:47;;;;;;;7.23;3.10;;;25.20;21.00;;;;;;5045603;28;20484;-75
2022/06/11 09:32:17;;;;;;;5.45;2.75;;;25.50;19.80;;;;;;5019309;28;20410;-75
2022/06/11 09:35:00;;;;;;;4.10;2.83;;;25.80;19.80;;;;;;5052612;28;20451;-74
2022/06/11 09:37:32;;;;;;;5.80;3.50;;;25.90;19.60;;;;;;5049813;28;20757;-74
2022/06/11 09:40:20;;;;;;;5.03;2.80;;;25.80;18.90;;;;;;5048726;28;20405;-75
2022/06/11 09:42:59;;;;;;;7.50;3.75;;;25.60;19.70;;;;;;5047154;28;20500;-75
2022/06/11 09:45:31;;;;;;;7.90;3.60;;;25.40;20.00;;;;;;5047598;28;20770;-76
2022/06/11 09:48:10;;;;;;;5.15;3.20;;;25.60;19.50;;;;;;5049764;28;20397;-74
2022/06/11 09:50:58;;;;;;;4.05;3.47;;;25.50;20.00;;;;;;5044120;28;20921;-74
2022/06/11 09:53:32;;;;;;;9.10;4.20;;;25.70;19.70;;;;;;5049705;28;20412;-74
2022/06/11 09:56:07;;;;;;;8.63;4.00;;;25.40;19.90;;;;;;5045654;28;20397;-74
2022/06/11 09:58:57;;;;;;;8.80;4.20;;;25.40;20.20;;;;;;5044884;28;20397;-76
2022/06/11 10:01:31;;;;;;;6.07;3.72;;;25.70;20.00;;;;;;5045895;28;20447;-75
2022/06/11 10:04:04;;;;;;;11.10;4.87;;;25.30;21.00;;;;;;5048985;28;20483;-73
2022/06/11 10:06:41;;;;;;;7.38;4.20;;;24.70;21.90;;;;;;5027127;28;20436;-75
2022/06/11 10:09:31;;;;;;;7.07;4.72;;;24.70;22.40;;;;;;5048573;28;20397;-76
2022/06/11 10:12:21;;;;;;;7.80;4.57;;;24.80;21.70;;;;;;5049618;28;20496;-75
2022/06/11 10:14:56;;;;;;;6.10;4.70;;;25.10;20.80;;;;;;5047459;28;20393;-76
2022/06/11 10:17:46;;;;;;;8.70;4.40;;;25.40;20.20;;;;;;5050470;28;20865;-77
2022/06/11 10:20:38;;;;;;;8.48;5.20;;;25.40;20.50;;;;;;5051555;28;20558;-75
2022/06/11 10:23:26;;;;;;;6.82;4.18;;;25.00;21.90;;;;;;5048747;28;20425;-75
2022/06/11 10:26:07;;;;;;;6.20;4.03;;;25.20;20.50;;;;;;5049510;28;20393;-75
2022/06/11 10:28:38;;;;;;;7.03;4.45;;;25.30;20.30;;;;;;5051253;28;20393;-75
2022/06/11 10:31:19;;;;;;;7.18;4.40;;;25.20;20.20;;;;;;5073732;22;20412;-71
2022/06/11 10:33:56;;;;;;;11.23;4.97;;;25.20;20.50;;;;;;5050555;28;20413;-72
2022/06/11 10:36:29;;;;;;;7.65;4.60;;;25.20;21.30;;;;;;5053312;28;20383;-72
2022/06/11 10:39:03;;;;;;;9.15;5.10;;;25.20;21.00;;;;;;5047952;28;20413;-72
2022/06/11 10:41:54;;;;;;;9.65;4.50;;;25.20;20.70;;;;;;5051077;28;20857;-72
2022/06/11 10:44:29;;;;;;;11.95;4.65;;;25.00;21.80;;;;;;5047890;28;20444;-72
2022/06/11 10:46:56;;;;;;;10.90;4.80;;;25.00;21.40;;;;;;5049047;28;20412;-72
2022/06/11 10:49:22;;;;;;;8.50;4.50;;;25.00;21.20;;;;;;5048534;28;20401;-72
2022/06/11 10:52:01;;;;;;;5.70;4.70;;;24.70;22.20;;;;;;5047088;28;20478;-72
2022/06/11 10:54:26;;;;;;;7.85;5.10;;;24.40;22.90;;;;;;5048305;28;20802;-71
2022/06/11 10:57:00;;;;;;;7.93;5.30;;;24.20;23.30;;;;;;5049052;28;20397;-71
2022/06/11 11:00:00;;;;;;;9.77;5.90;;;24.10;23.80;;;;;;5030821;28;20409;-72
2022/06/11 11:02:31;;;;;;;10.45;5.38;;;24.30;23.20;;;;;;5032699;28;20429;-71
2022/06/11 11:05:09;;;;;;;8.80;4.65;;;24.50;23.70;;;;;;5046304;28;20910;-72
2022/06/11 11:07:58;;;;;;;5.70;4.60;;;24.80;23.60;;;;;;5032029;28;20455;-71
2022/06/11 11:10:29;;;;;;;10.07;6.28;;;25.10;21.90;;;;;;5048656;28;20462;-71
2022/06/11 11:13:02;;;;;;;7.28;4.72;;;24.80;20.70;;;;;;5048647;28;20853;-72
2022/06/11 11:15:35;;;;;;;9.30;5.00;;;24.50;21.80;;;;;;5049281;28;20424;-71
2022/06/11 11:18:16;;;;;;;6.38;4.18;;;24.40;22.20;;;;;;5049946;28;20928;-70
2022/06/11 11:20:44;;;;;;;10.30;5.50;;;24.10;24.30;;;;;;5047777;28;20443;-74
2022/06/11 11:23:09;;;;;;;10.05;5.75;;;24.30;23.70;;;;;;5054580;28;20385;-73
2022/06/11 11:25:52;;;;;;;7.60;4.70;;;24.20;22.60;;;;;;5055330;28;20405;-71
2022/06/11 11:28:50;;;;;;;10.20;4.60;;;24.10;22.80;;;;;;5055624;28;20381;-72
2022/06/11 11:31:28;;;;;;;8.82;4.25;;;24.60;23.00;;;;;;5046098;28;20424;-71
2022/06/11 11:34:13;;;;;;;5.75;4.55;;;25.00;20.80;;;;;;5052814;28;20884;-72
2022/06/11 11:36:39;;;;;;;6.38;3.83;;;25.40;20.00;;;;;;5045673;28;20471;-70
2022/06/11 11:39:26;;;;;;;8.30;5.53;;;25.00;21.20;;;;;;5048310;28;20393;-70
2022/06/11 11:42:07;;;;;;;16.80;6.70;;;24.60;20.80;;;;;;5046890;28;20496;-71
2022/06/11 11:44:51;;;;;;;7.65;3.92;;;24.50;21.70;;;;;;5053851;28;20476;-71
2022/06/11 11:47:40;;;;;;;6.90;3.80;;;24.60;21.10;;;;;;5050292;28;20497;-71
2022/06/11 11:50:19;;;;;;;7.95;3.90;;;24.90;20.90;;;;;;5038177;28;20483;-71
2022/06/11 11:52:51;;;;;;;5.05;3.78;;;24.90;20.00;;;;;;5047386;28;20405;-70
2022/06/11 11:55:31;;;;;;;5.43;3.67;;;24.70;21.00;;;;;;5041616;28;20397;-69
2022/06/11 11:58:06;;;;;;;5.63;4.20;;;24.40;21.60;;;;;;5047126;28;20405;-69
2022/06/11 12:01:01;;;;;;;4.55;3.45;;;24.20;22.60;;;;;;5047389;28;20496;-70
2022/06/11 12:03:39;;;;;;;8.52;3.90;;;24.10;23.10;;;;;;5044420;28;20785;-71
2022/06/11 12:06:07;;;;;;;6.88;3.50;;;24.30;21.80;;;;;;5048427;28;20401;-71
2022/06/11 12:08:51;;;;;;;7.90;3.60;;;24.20;22.30;;;;;;5047792;28;20405;-70
2022/06/11 12:11:28;;;;;;;8.50;4.50;;;23.90;23.40;;;;;;5045854;28;20417;-71
2022/06/11 12:14:01;;;;;;;6.07;3.60;;;24.20;23.30;;;;;;5044607;28;20406;-72
2022/06/11 12:16:35;;;;;;;6.68;3.60;;;24.70;20.70;;;;;;5037829;28;20911;-71
2022/06/11 12:19:16;;;;;;;7.00;3.80;;;24.80;20.30;;;;;;5041122;28;20735;-71
2022/06/11 12:21:44;;;;;;;9.18;3.60;;;25.00;19.90;;;;;;5045905;28;20984;-70
2022/06/11 12:24:18;;;;;;;8.52;3.75;;;25.20;19.30;;;;;;5047279;28;20490;-71
2022/06/11 12:26:47;;;;;;;12.30;7.15;;;25.40;18.70;;;;;;5041035;28;20962;-71
2022/06/11 12:29:27;;;;;;;6.85;3.83;;;25.10;19.40;;;;;;5043762;28;20406;-71
2022/06/11 12:31:58;;;;;;;5.15;3.10;;;25.20;20.00;;;;;;5042451;28;20765;-72
2022/06/11 12:34:29;;;;;;;5.53;3.10;;;25.50;19.00;;;;;;5045354;28;20455;-71
2022/06/11 12:37:10;;;;;;;10.95;4.13;;;25.60;18.50;;;;;;5046601;28;20897;-74
2022/06/11 12:39:46;;;;;;;3.30;3.00;;;25.50;17.80;;;;;;5040463;28;20913;-71
2022/06/11 12:42:32;;;;;;;5.55;3.30;;;25.80;17.90;;;;;;5047643;28;20562;-71
2022/06/11 12:45:27;;;;;;;4.95;3.20;;;26.00;17.70;;;;;;5032035;28;20428;-73
2022/06/11 12:48:14;;;;;;;6.38;2.70;;;25.40;17.80;;;;;;5045784;28;20397;-71
2022/06/11 12:50:55;;;;;;;9.55;6.50;;;25.20;18.70;;;;;;5043029;28;20787;-70
2022/06/11 12:53:35;;;;;;;13.68;6.68;;;25.10;19.30;;;;;;5047087;28;20438;-71
2022/06/11 12:56:25;;;;;;;9.88;4.13;;;25.30;19.00;;;;;;5049879;28;20409;-71
2022/06/11 12:58:50;;;;;;;6.80;3.30;;;25.60;19.00;;;;;;5050693;28;20498;-71
2022/06/11 13:01:43;;;;;;;5.17;2.87;;;25.60;17.80;;;;;;5050547;28;20504;-69
2022/06/11 13:04:20;;;;;;;2.97;2.25;;;25.40;18.10;;;;;;5050328;28;20401;-71
2022/06/11 13:06:55;;;;;;;12.77;7.85;;;25.40;18.30;;;;;;5048928;28;20446;-70
2022/06/11 13:09:36;;;;;;;34.53;20.42;;;25.50;18.10;;;;;;5047648;28;20492;-70
2022/06/11 13:12:07;;;;;;;10.10;4.00;;;25.60;18.40;;;;;;5047987;28;20793;-70
2022/06/11 13:14:57;;;;;;;8.13;2.60;;;25.70;17.50;;;;;;5046776;28;20762;-72
2022/06/11 13:17:26;;;;;;;5.32;3.78;;;26.00;17.70;;;;;;5047839;28;20475;-70
2022/06/11 13:20:28;;;;;;;4.38;2.00;;;26.30;17.10;;;;;;5050159;28;20397;-71
2022/06/11 13:23:08;;;;;;;5.35;4.32;;;26.00;18.10;;;;;;5044315;28;20770;-73
2022/06/11 13:25:47;;;;;;;2.27;1.93;;;25.70;17.80;;;;;;5036150;28;20541;-69
2022/06/11 13:28:34;;;;;;;5.40;2.55;;;25.40;18.30;;;;;;5045749;28;20730;-71
2022/06/11 13:31:25;;;;;;;3.28;2.10;;;25.20;18.10;;;;;;5048630;28;20888;-75
2022/06/11 13:34:10;;;;;;;2.70;1.80;;;25.40;17.40;;;;;;5043405;28;20482;-76
2022/06/11 13:37:04;;;;;;;5.15;1.70;;;26.50;16.10;;;;;;5042106;28;20399;-74
2022/06/11 13:39:48;;;;;;;3.72;1.60;;;27.60;14.60;;;;;;5041706;28;20889;-75
2022/06/11 13:42:59;;;;;;;4.55;3.20;;;27.10;16.30;;;;;;5039500;28;20438;-69
2022/06/11 13:45:25;;;;;;;2.92;2.00;;;27.70;14.00;;;;;;5042313;28;20457;-76
2022/06/11 13:48:32;;;;;;;5.60;3.00;;;28.60;11.10;;;;;;5047465;28;21088;-75
2022/06/11 13:51:22;;;;;;;3.30;2.13;;;29.20;11.40;;;;;;5019917;28;20671;-76
2022/06/11 13:57:19;;;;;;;4.00;2.30;;;29.10;10.40;;;;;;5048661;28;20475;-72
2022/06/11 13:59:53;;;;;;;4.03;1.80;;;28.50;11.80;;;;;;5044667;28;20482;-74
2022/06/11 14:02:43;;;;;;;5.70;2.05;;;28.50;11.40;;;;;;5042011;28;20413;-72
2022/06/11 14:05:22;;;;;;;6.13;1.70;;;27.90;13.40;;;;;;5045505;28;20397;-71
2022/06/11 14:07:48;;;;;;;2.58;1.67;;;28.10;11.60;;;;;;5041773;28;20397;-76
2022/06/11 14:10:28;;;;;;;4.30;1.70;;;29.10;10.70;;;;;;5037627;28;20478;-74
2022/06/11 14:13:01;;;;;;;1.50;1.40;;;29.60;9.30;;;;;;5046502;28;20416;-76
2022/06/11 14:15:40;;;;;;;4.43;1.70;;;28.90;8.20;;;;;;5041920;28;20465;-72
2022/06/11 14:18:05;;;;;;;3.72;1.67;;;28.00;10.30;;;;;;5049581;28;20753;-72
2022/06/11 14:20:31;;;;;;;3.87;1.70;;;27.10;11.70;;;;;;5052621;28;20408;-74
2022/06/11 14:23:00;;;;;;;4.50;2.00;;;27.90;10.90;;;;;;5037824;28;20459;-74
2022/06/11 14:25:35;;;;;;;5.60;1.70;;;27.90;10.90;;;;;;5031914;28;20386;-73
2022/06/11 14:28:16;;;;;;;8.50;2.75;;;28.90;8.20;;;;;;5031030;28;20393;-71